PHSO2: Bird Creek at SH 99 at Pawhuska, Ok

                                SHEF ID:       PHSO2     Bird Creek at SH 99
STATION TYPE:

PRECIP STAGE STAGE(2) RIV-FLOW VOLTAGE BAT-LOAD
in ft ft cfs volt volt
Ccp-Rev Ccp-Rev Ccp-Rev Ccp-Rev Ccp-Rev Ccp-Rev
(America/Chicago)
06/29 00:00 0.00 6.65 6.52 206 12.94 ----
06/29 01:00 0.00 6.64 6.49 204 12.93 ----
06/29 02:00 0.00 6.61 6.48 196 12.91 ----
06/29 03:00 0.00 6.59 6.47 191 12.90 ----
06/29 04:00 0.00 6.56 6.45 184 12.88 ----
06/29 05:00 0.00 6.56 6.42 184 12.86 ----
06/29 06:00 0.00 6.53 6.40 177 12.84 ----
06/29 07:00 0.00 6.52 6.39 175 12.91 ----
06/29 08:00 0.00 6.50 6.37 170 13.15 ----
06/29 09:00 0.00 6.48 6.35 166 13.88 ----
06/29 10:00 0.00 6.47 6.35 164 13.81 ----
06/29 11:00 0.00 6.45 6.34 159 13.37 ----
06/29 12:00 0.00 6.44 6.33 157 13.35 ----
06/29 13:00 0.00 6.43 6.31 155 13.31 ----
06/29 14:00 0.00 6.41 6.30 151 13.29 ----
06/29 15:00 0.00 6.36 6.26 140 13.27 ----
06/29 16:00 0.00 6.34 6.26 136 13.29 ----
06/29 17:00 0.00 6.32 6.23 132 13.29 ----
06/29 18:00 0.00 6.30 6.21 129 13.31 ----
06/29 19:00 0.00 6.28 6.19 125 13.13 ----
06/29 20:00 0.00 6.27 6.18 123 13.11 ----
06/29 21:00 0.00 6.25 6.15 119 13.00 ----
06/29 22:00 0.00 6.23 6.14 116 12.97 ----
06/29 23:00 0.00 6.22 6.13 114 12.92 ----
Data processed at Tue 30Jun2026 04:53 GMT

NOTICE: If you are parsing this page

Please convert to using our Data API. Starting early 2026 we will be migrating to: https://water.usace.army.mil with modern pages rendered in JavaScript. When this migration completes you will no longer be able to scrape this page! CWMSDataAPI (CDA)

Timeseries IDs (TSIDs)

TSIDs used from left to right in the data table
PAWH.Precip-Inc.Total.1Hour.1Hour.Ccp-Rev
PAWH.Stage.Inst.1Hour.0.Ccp-Rev
PAWH.Stage-Alt.Inst.1Hour.0.Ccp-Rev
PAWH.Flow.Inst.1Hour.0.Ccp-Rev
PAWH.Volt-Battery.Inst.1Hour.0.Ccp-Rev
PAWH.Volt-Battery Load.Inst.1Hour.0.Ccp-Rev

                            

All information presented herein is the property of the government of the United States of America and may be revised or deleted at any time without prior notice. Dissemination of this information without the expressed written consent of the Public Affairs Office, Tulsa District U.S. Army Corps of Engineers is strictly prohibited. These data are gathered electronically and, as presented, have NOT undergone any form of quality control. These data are NOT guaranteed to be valid or correct.